Time;durP1;ratioP1;P1;durP2;ratioP2;P2;SDS_P1;SDS_P2;PMS_P1;PMS_P2;Temp;Humidity;BMP_temperature;BMP_pressure;BME280_temperature;BME280_humidity;BME280_pressure;Samples;Min_cycle;Max_cycle;Signal;HPM_P1;HPM_P2
2023/04/18 00:01:39;;;;;;;4.80;4.03;;;;;;;;;;5032486;28;20197;-55
2023/04/18 00:04:05;;;;;;;3.93;3.53;;;;;;;;;;5032673;28;20199;-56
2023/04/18 00:06:34;;;;;;;4.17;3.77;;;;;;;;;;5032551;28;20197;-56
2023/04/18 00:09:00;;;;;;;4.27;3.87;;;;;;;;;;5032581;28;20233;-55
2023/04/18 00:11:26;;;;;;;3.97;3.57;;;;;;;;;;5032294;28;20235;-56
2023/04/18 00:13:52;;;;;;;4.10;3.70;;;;;;;;;;5032198;28;20247;-56
2023/04/18 00:16:18;;;;;;;4.00;3.60;;;;;;;;;;5032480;28;20205;-56
2023/04/18 00:18:44;;;;;;;5.17;4.13;;;;;;;;;;5032066;28;20220;-56
2023/04/18 00:21:12;;;;;;;3.97;3.57;;;;;;;;;;5032573;28;20207;-56
2023/04/18 00:23:40;;;;;;;4.07;3.67;;;;;;;;;;5032234;28;20197;-56
2023/04/18 00:26:06;;;;;;;4.10;3.70;;;;;;;;;;5030009;28;20212;-56
2023/04/18 00:28:32;;;;;;;4.20;3.63;;;;;;;;;;5024718;28;20201;-55
2023/04/18 00:30:58;;;;;;;3.77;3.43;;;;;;;;;;5032346;28;20255;-55
2023/04/18 00:33:24;;;;;;;4.80;3.97;;;;;;;;;;5032270;28;20235;-55
2023/04/18 00:35:50;;;;;;;5.63;3.83;;;;;;;;;;5032286;28;20270;-55
2023/04/18 00:38:16;;;;;;;4.20;3.60;;;;;;;;;;5032007;28;20224;-55
2023/04/18 00:40:43;;;;;;;5.47;3.80;;;;;;;;;;5032048;28;20204;-54
2023/04/18 00:43:12;;;;;;;4.37;3.97;;;;;;;;;;5032279;28;20224;-54
2023/04/18 00:45:38;;;;;;;5.87;4.30;;;;;;;;;;5031958;28;20189;-54
2023/04/18 00:48:04;;;;;;;5.00;4.00;;;;;;;;;;5031974;28;20227;-52
2023/04/18 00:50:30;;;;;;;4.67;4.00;;;;;;;;;;5031769;28;20200;-53
2023/04/18 00:52:57;;;;;;;4.70;4.30;;;;;;;;;;5032086;28;20200;-53
2023/04/18 00:55:23;;;;;;;5.30;4.80;;;;;;;;;;5032074;28;20205;-53
2023/04/18 00:57:51;;;;;;;4.70;4.30;;;;;;;;;;5031351;28;20306;-54
2023/04/18 01:00:17;;;;;;;4.73;4.33;;;;;;;;;;5031737;28;20208;-54
2023/04/18 01:02:43;;;;;;;6.60;4.97;;;;;;;;;;5031616;28;20193;-54
2023/04/18 01:05:09;;;;;;;4.70;4.10;;;;;;;;;;5031846;28;20204;-54
2023/04/18 01:07:36;;;;;;;4.63;4.17;;;;;;;;;;5031446;28;20251;-53
2023/04/18 01:10:03;;;;;;;5.40;4.63;;;;;;;;;;5031484;28;20193;-54
2023/04/18 01:12:29;;;;;;;5.23;4.20;;;;;;;;;;5031589;28;20569;-54
2023/04/18 01:14:57;;;;;;;4.67;4.17;;;;;;;;;;5031574;28;20630;-54
2023/04/18 01:17:23;;;;;;;4.67;4.20;;;;;;;;;;5031515;28;20235;-54
2023/04/18 01:19:49;;;;;;;4.90;4.40;;;;;;;;;;5031237;28;20224;-54
2023/04/18 01:22:16;;;;;;;5.03;4.53;;;;;;;;;;5030857;28;20208;-54
2023/04/18 01:24:44;;;;;;;5.23;4.70;;;;;;;;;;5031268;28;20208;-54
2023/04/18 01:27:10;;;;;;;5.20;4.33;;;;;;;;;;5031419;28;20602;-54
2023/04/18 01:29:36;;;;;;;4.80;4.33;;;;;;;;;;5031272;28;20193;-54
2023/04/18 01:32:02;;;;;;;4.67;4.27;;;;;;;;;;5031236;28;20208;-53
2023/04/18 01:34:28;;;;;;;4.67;4.23;;;;;;;;;;5031275;28;20197;-54
2023/04/18 01:36:54;;;;;;;5.37;4.70;;;;;;;;;;5031311;28;20197;-53
2023/04/18 01:39:20;;;;;;;4.93;4.43;;;;;;;;;;5030994;28;20660;-54
2023/04/18 01:41:47;;;;;;;5.90;4.20;;;;;;;;;;5031058;28;20295;-54
2023/04/18 01:44:13;;;;;;;5.60;4.97;;;;;;;;;;5031076;28;20675;-54
2023/04/18 01:46:40;;;;;;;5.70;4.83;;;;;;;;;;5031153;28;20197;-54
2023/04/18 01:49:06;;;;;;;4.93;4.47;;;;;;;;;;5031100;28;20243;-54
2023/04/18 01:51:32;;;;;;;5.63;5.03;;;;;;;;;;5031029;28;20430;-54
2023/04/18 01:53:58;;;;;;;5.70;4.87;;;;;;;;;;5031089;28;20236;-54
2023/04/18 01:56:24;;;;;;;6.83;4.80;;;;;;;;;;5030966;28;20710;-54
2023/04/18 01:58:51;;;;;;;5.20;4.67;;;;;;;;;;5030588;28;20237;-54
2023/04/18 02:01:17;;;;;;;5.33;4.83;;;;;;;;;;5030986;28;20200;-54
2023/04/18 02:03:43;;;;;;;5.53;5.03;;;;;;;;;;5030953;28;20566;-54
2023/04/18 02:06:09;;;;;;;5.53;4.90;;;;;;;;;;5031112;28;20193;-54
2023/04/18 02:08:35;;;;;;;5.30;4.60;;;;;;;;;;5030867;28;20224;-55
2023/04/18 02:11:01;;;;;;;5.60;5.00;;;;;;;;;;5030764;28;20197;-54
2023/04/18 02:13:27;;;;;;;5.40;4.90;;;;;;;;;;5030970;28;20201;-54
2023/04/18 02:15:55;;;;;;;6.47;5.27;;;;;;;;;;5030947;28;20197;-54
2023/04/18 02:18:23;;;;;;;6.00;5.10;;;;;;;;;;5030921;28;20224;-54
2023/04/18 02:20:50;;;;;;;5.40;4.87;;;;;;;;;;5030680;28;20213;-53
2023/04/18 02:23:16;;;;;;;5.83;5.20;;;;;;;;;;5030669;28;20738;-53
2023/04/18 02:25:42;;;;;;;5.63;5.10;;;;;;;;;;5030727;28;20204;-53
2023/04/18 02:28:08;;;;;;;6.90;5.33;;;;;;;;;;5030768;28;20197;-54
2023/04/18 02:30:34;;;;;;;6.60;5.90;;;;;;;;;;5030684;28;20193;-54
2023/04/18 02:33:01;;;;;;;7.77;5.43;;;;;;;;;;5030553;28;20679;-54
2023/04/18 02:35:27;;;;;;;6.60;5.90;;;;;;;;;;5032979;28;20201;-54
2023/04/18 02:37:53;;;;;;;6.87;5.87;;;;;;;;;;5034546;28;20201;-54
2023/04/18 02:40:19;;;;;;;5.90;5.30;;;;;;;;;;5034198;28;20224;-54
2023/04/18 02:42:45;;;;;;;6.30;5.70;;;;;;;;;;5034202;28;20235;-54
2023/04/18 02:45:11;;;;;;;6.70;5.80;;;;;;;;;;5034426;28;20193;-54
2023/04/18 02:47:38;;;;;;;5.80;5.30;;;;;;;;;;5033877;28;20204;-54
2023/04/18 02:50:07;;;;;;;6.50;5.80;;;;;;;;;;5034253;28;20193;-54
2023/04/18 02:52:33;;;;;;;6.20;5.60;;;;;;;;;;5034099;28;20201;-54
2023/04/18 02:54:58;;;;;;;8.03;5.97;;;;;;;;;;5033948;28;20689;-54
2023/04/18 02:57:24;;;;;;;7.03;5.27;;;;;;;;;;5034039;28;20228;-53
2023/04/18 02:59:50;;;;;;;6.63;5.93;;;;;;;;;;5033902;28;20264;-54
2023/04/18 03:02:17;;;;;;;7.60;5.90;;;;;;;;;;5033859;28;20189;-54
2023/04/18 03:04:43;;;;;;;6.47;5.80;;;;;;;;;;5033853;28;20212;-54
2023/04/18 03:07:10;;;;;;;8.57;6.20;;;;;;;;;;5034018;28;20193;-54
2023/04/18 03:09:36;;;;;;;7.10;5.30;;;;;;;;;;5033820;28;20197;-54
2023/04/18 03:12:02;;;;;;;8.17;6.20;;;;;;;;;;5033568;28;20197;-54
2023/04/18 03:14:28;;;;;;;6.70;6.10;;;;;;;;;;5033796;28;20231;-54
2023/04/18 03:16:54;;;;;;;7.63;6.67;;;;;;;;;;5033692;28;20192;-54
2023/04/18 03:19:20;;;;;;;5.87;5.20;;;;;;;;;;5033536;28;20225;-54
2023/04/18 03:21:46;;;;;;;6.90;5.30;;;;;;;;;;5033347;28;20280;-54
2023/04/18 03:24:14;;;;;;;6.90;5.83;;;;;;;;;;5033540;28;20209;-54
2023/04/18 03:26:40;;;;;;;8.90;6.30;;;;;;;;;;5033538;28;20220;-54
2023/04/18 03:29:06;;;;;;;6.47;5.57;;;;;;;;;;5033377;28;20659;-54
2023/04/18 03:31:32;;;;;;;7.70;6.40;;;;;;;;;;5033338;28;20209;-54
2023/04/18 03:33:58;;;;;;;7.60;5.90;;;;;;;;;;5033354;28;20279;-54
2023/04/18 03:36:27;;;;;;;7.37;5.80;;;;;;;;;;5033563;28;20209;-54
2023/04/18 03:38:53;;;;;;;6.63;5.77;;;;;;;;;;5033195;28;20225;-54
2023/04/18 03:41:21;;;;;;;7.10;5.67;;;;;;;;;;5033181;28;20201;-54
2023/04/18 03:43:47;;;;;;;6.17;5.57;;;;;;;;;;5033179;28;20217;-54
2023/04/18 03:46:13;;;;;;;7.70;6.37;;;;;;;;;;5032792;28;20662;-54
2023/04/18 03:48:39;;;;;;;7.20;6.00;;;;;;;;;;5033296;28;20200;-54
2023/04/18 03:51:05;;;;;;;6.83;5.90;;;;;;;;;;5033067;28;20205;-54
2023/04/18 03:53:31;;;;;;;6.80;6.10;;;;;;;;;;5033037;28;20200;-54
2023/04/18 03:55:57;;;;;;;6.70;6.07;;;;;;;;;;5032824;28;20221;-54
2023/04/18 03:58:25;;;;;;;6.97;6.13;;;;;;;;;;5032895;28;20237;-54
2023/04/18 04:00:51;;;;;;;6.50;5.80;;;;;;;;;;5032974;28;20231;-54
2023/04/18 04:03:17;;;;;;;6.67;6.00;;;;;;;;;;5032764;28;20681;-54
2023/04/18 04:05:43;;;;;;;8.97;6.53;;;;;;;;;;5032745;28;20563;-54
2023/04/18 04:08:09;;;;;;;6.80;6.10;;;;;;;;;;5032663;28;20536;-54
2023/04/18 04:10:35;;;;;;;7.03;6.33;;;;;;;;;;5032634;28;20266;-54
2023/04/18 04:13:01;;;;;;;6.43;5.73;;;;;;;;;;5032538;28;20208;-54
2023/04/18 04:15:28;;;;;;;6.50;5.90;;;;;;;;;;5032802;28;20197;-54
2023/04/18 04:17:54;;;;;;;7.73;6.40;;;;;;;;;;5032632;28;20205;-54
2023/04/18 04:20:23;;;;;;;7.03;6.33;;;;;;;;;;5032360;28;20656;-54
2023/04/18 04:22:51;;;;;;;6.87;6.17;;;;;;;;;;5032308;28;20251;-54
2023/04/18 04:25:17;;;;;;;7.37;6.20;;;;;;;;;;5032386;28;20205;-54
2023/04/18 04:27:43;;;;;;;7.27;6.50;;;;;;;;;;5032656;28;20211;-54
2023/04/18 04:30:09;;;;;;;7.57;6.77;;;;;;;;;;5032408;28;20610;-54
2023/04/18 04:32:37;;;;;;;7.50;6.67;;;;;;;;;;5032135;28;20654;-54
2023/04/18 04:35:04;;;;;;;8.03;7.00;;;;;;;;;;5032097;28;20209;-54
2023/04/18 04:37:32;;;;;;;7.90;7.10;;;;;;;;;;5032158;28;20209;-54
2023/04/18 04:39:59;;;;;;;7.60;6.83;;;;;;;;;;5031859;28;20229;-53
2023/04/18 04:42:27;;;;;;;7.87;6.87;;;;;;;;;;5032090;28;20655;-53
2023/04/18 04:44:53;;;;;;;8.00;7.20;;;;;;;;;;5031933;28;20228;-54
2023/04/18 04:47:19;;;;;;;8.47;7.13;;;;;;;;;;5031742;28;20449;-53
2023/04/18 04:49:46;;;;;;;7.37;6.67;;;;;;;;;;5031785;28;20204;-53
2023/04/18 04:52:12;;;;;;;8.17;6.87;;;;;;;;;;5031862;28;20205;-53
2023/04/18 04:54:38;;;;;;;6.83;6.13;;;;;;;;;;5031979;28;20204;-53
2023/04/18 04:57:04;;;;;;;9.20;7.70;;;;;;;;;;5030852;28;20586;-54
2023/04/18 04:59:30;;;;;;;8.47;7.60;;;;;;;;;;5031467;28;20294;-54
2023/04/18 05:01:56;;;;;;;7.93;6.83;;;;;;;;;;5031730;28;20236;-54
2023/04/18 05:04:24;;;;;;;9.43;7.93;;;;;;;;;;5031849;28;20200;-54
2023/04/18 05:06:51;;;;;;;10.80;7.87;;;;;;;;;;5031513;28;20209;-54
2023/04/18 05:09:17;;;;;;;9.90;7.77;;;;;;;;;;5031530;28;20204;-54
2023/04/18 05:11:43;;;;;;;9.17;7.60;;;;;;;;;;5031410;28;20254;-54
2023/04/18 05:14:09;;;;;;;7.60;6.83;;;;;;;;;;5031223;28;20240;-54
2023/04/18 05:16:35;;;;;;;8.10;7.23;;;;;;;;;;5031385;28;20458;-54
2023/04/18 05:19:01;;;;;;;9.83;7.27;;;;;;;;;;5030824;28;20221;-54
2023/04/18 05:21:28;;;;;;;8.77;7.87;;;;;;;;;;5031257;28;20205;-54
2023/04/18 05:23:55;;;;;;;9.60;8.10;;;;;;;;;;5031354;28;20212;-54
2023/04/18 05:26:21;;;;;;;8.57;7.57;;;;;;;;;;5031203;28;20208;-54
2023/04/18 05:28:47;;;;;;;7.93;7.13;;;;;;;;;;5031202;28;20199;-53
2023/04/18 05:31:13;;;;;;;9.30;7.40;;;;;;;;;;5030976;28;20259;-53
2023/04/18 05:33:39;;;;;;;8.97;8.00;;;;;;;;;;5031159;28;20193;-54
2023/04/18 05:36:06;;;;;;;9.93;7.83;;;;;;;;;;5031021;28;20766;-53
2023/04/18 05:38:32;;;;;;;8.00;7.20;;;;;;;;;;5030920;28;20670;-53
2023/04/18 05:41:01;;;;;;;9.23;7.60;;;;;;;;;;5030985;28;20211;-57
2023/04/18 05:43:27;;;;;;;8.10;7.30;;;;;;;;;;5031148;28;20255;-53
2023/04/18 05:45:53;;;;;;;8.87;7.53;;;;;;;;;;5030977;28;20213;-54
2023/04/18 05:48:21;;;;;;;8.63;7.73;;;;;;;;;;5031087;28;20620;-53
2023/04/18 05:50:47;;;;;;;7.27;6.57;;;;;;;;;;5031002;28;20209;-53
2023/04/18 05:53:13;;;;;;;8.30;7.47;;;;;;;;;;5030869;28;20258;-53
2023/04/18 05:55:39;;;;;;;8.43;7.63;;;;;;;;;;5031013;28;20693;-53
2023/04/18 05:58:07;;;;;;;8.87;8.00;;;;;;;;;;5030662;28;20232;-53
2023/04/18 06:00:33;;;;;;;9.60;7.67;;;;;;;;;;5030903;28;20261;-53
2023/04/18 06:02:59;;;;;;;8.97;8.10;;;;;;;;;;5030895;28;20251;-53
2023/04/18 06:05:25;;;;;;;9.40;7.50;;;;;;;;;;5031186;28;20197;-53
2023/04/18 06:07:51;;;;;;;8.40;7.40;;;;;;;;;;5030779;28;20207;-53
2023/04/18 06:10:17;;;;;;;8.13;7.33;;;;;;;;;;5034243;28;20722;-54
2023/04/18 06:12:43;;;;;;;10.33;7.53;;;;;;;;;;5034797;28;20232;-54
2023/04/18 06:15:11;;;;;;;8.67;7.30;;;;;;;;;;5034838;28;20220;-55
2023/04/18 06:17:37;;;;;;;9.07;7.10;;;;;;;;;;5034785;28;20300;-54
2023/04/18 06:20:06;;;;;;;9.87;8.07;;;;;;;;;;5034488;28;20993;-54
2023/04/18 06:22:35;;;;;;;9.23;7.87;;;;;;;;;;5034918;28;20410;-54
2023/04/18 06:25:01;;;;;;;7.73;6.93;;;;;;;;;;5034724;28;20200;-54
2023/04/18 06:27:27;;;;;;;8.43;7.43;;;;;;;;;;5034818;28;20200;-54
2023/04/18 06:29:53;;;;;;;8.43;7.53;;;;;;;;;;5034624;28;20287;-54
2023/04/18 06:32:20;;;;;;;7.47;6.77;;;;;;;;;;5034435;28;20505;-54
2023/04/18 06:34:46;;;;;;;7.93;7.00;;;;;;;;;;5034405;28;20663;-53
2023/04/18 06:37:12;;;;;;;8.60;7.40;;;;;;;;;;5034399;28;20195;-54
2023/04/18 06:39:38;;;;;;;9.10;7.70;;;;;;;;;;5034339;28;20240;-54
2023/04/18 06:42:04;;;;;;;7.10;6.40;;;;;;;;;;5034226;28;20208;-54
2023/04/18 06:44:31;;;;;;;7.77;6.93;;;;;;;;;;5034338;28;20207;-54
2023/04/18 06:46:57;;;;;;;6.93;6.23;;;;;;;;;;5034305;28;20200;-54
2023/04/18 06:49:24;;;;;;;7.93;7.13;;;;;;;;;;5034255;28;20249;-54
2023/04/18 06:51:50;;;;;;;7.90;7.03;;;;;;;;;;5034010;28;20614;-54
2023/04/18 06:54:16;;;;;;;9.10;6.47;;;;;;;;;;5033903;28;20193;-54
2023/04/18 06:56:42;;;;;;;7.33;6.53;;;;;;;;;;5034113;28;20636;-54
2023/04/18 06:59:08;;;;;;;7.80;6.90;;;;;;;;;;5033780;28;20229;-54
2023/04/18 07:01:40;;;;;;;9.83;7.43;;;;;;;;;;5033948;28;20280;-53
2023/04/18 07:04:06;;;;;;;7.80;7.00;;;;;;;;;;5033788;28;20580;-54
2023/04/18 07:06:33;;;;;;;7.83;7.03;;;;;;;;;;5033791;28;20255;-53
2023/04/18 07:09:00;;;;;;;6.60;6.00;;;;;;;;;;5033561;28;20201;-55
2023/04/18 07:11:26;;;;;;;7.60;6.80;;;;;;;;;;5033833;28;20205;-54
2023/04/18 07:13:52;;;;;;;7.10;6.40;;;;;;;;;;5033694;28;20200;-54
2023/04/18 07:16:18;;;;;;;7.90;7.10;;;;;;;;;;5033454;28;20207;-54
2023/04/18 07:18:44;;;;;;;8.00;7.00;;;;;;;;;;5033606;28;20268;-54
2023/04/18 07:21:10;;;;;;;11.60;7.50;;;;;;;;;;5032820;28;20564;-54
2023/04/18 07:23:38;;;;;;;7.80;7.00;;;;;;;;;;5033551;28;20685;-54
2023/04/18 07:26:04;;;;;;;8.00;6.93;;;;;;;;;;5033427;28;20201;-54
2023/04/18 07:28:31;;;;;;;8.30;6.90;;;;;;;;;;5033384;28;20689;-54
2023/04/18 07:30:57;;;;;;;6.90;6.20;;;;;;;;;;5033602;28;20247;-54
2023/04/18 07:33:23;;;;;;;7.30;6.57;;;;;;;;;;5033395;28;20204;-55
2023/04/18 07:35:50;;;;;;;6.60;6.00;;;;;;;;;;5033619;28;20201;-55
2023/04/18 07:38:16;;;;;;;7.10;6.40;;;;;;;;;;5033344;28;20682;-55
2023/04/18 07:40:44;;;;;;;6.60;5.90;;;;;;;;;;5033390;28;20320;-55
2023/04/18 07:43:10;;;;;;;6.77;5.87;;;;;;;;;;5033540;28;20204;-54
2023/04/18 07:45:37;;;;;;;6.73;6.13;;;;;;;;;;5033167;28;20204;-54
2023/04/18 07:48:03;;;;;;;7.40;6.03;;;;;;;;;;5032998;28;20422;-55
2023/04/18 07:50:29;;;;;;;7.77;6.03;;;;;;;;;;5032895;28;20746;-55
2023/04/18 07:52:55;;;;;;;8.77;6.20;;;;;;;;;;5033123;28;20224;-53
2023/04/18 07:55:21;;;;;;;6.27;5.73;;;;;;;;;;5032793;28;20236;-53
2023/04/18 07:57:49;;;;;;;6.20;5.43;;;;;;;;;;5032761;28;20548;-53
2023/04/18 08:00:15;;;;;;;5.97;5.37;;;;;;;;;;5032781;28;20308;-54
2023/04/18 08:02:41;;;;;;;9.57;5.77;;;;;;;;;;5032928;28;20666;-52
2023/04/18 08:05:08;;;;;;;6.40;5.67;;;;;;;;;;5032716;28;20200;-53
2023/04/18 08:07:35;;;;;;;5.93;5.37;;;;;;;;;;5032768;28;20267;-51
2023/04/18 08:10:01;;;;;;;5.87;5.33;;;;;;;;;;5032608;28;20201;-52
2023/04/18 08:12:27;;;;;;;7.87;5.23;;;;;;;;;;5032635;28;20226;-49
2023/04/18 08:14:54;;;;;;;5.17;4.67;;;;;;;;;;5032683;28;20209;-52
2023/04/18 08:17:21;;;;;;;5.43;4.90;;;;;;;;;;5032459;28;20211;-53
2023/04/18 08:19:47;;;;;;;5.90;5.40;;;;;;;;;;5032493;28;20229;-53
2023/04/18 08:22:13;;;;;;;6.27;5.17;;;;;;;;;;5032422;28;20201;-54
2023/04/18 08:24:39;;;;;;;5.73;5.17;;;;;;;;;;5032606;28;20223;-54
2023/04/18 08:27:06;;;;;;;5.97;5.17;;;;;;;;;;5032370;28;20224;-55
2023/04/18 08:29:32;;;;;;;5.20;4.70;;;;;;;;;;5032252;28;20212;-56
2023/04/18 08:31:59;;;;;;;5.40;4.90;;;;;;;;;;5032148;28;20277;-54
2023/04/18 08:34:25;;;;;;;6.43;4.97;;;;;;;;;;5032304;28;20283;-53
2023/04/18 08:36:51;;;;;;;6.13;5.27;;;;;;;;;;5032226;28;20192;-53
2023/04/18 08:39:17;;;;;;;5.50;5.00;;;;;;;;;;5031884;28;20286;-54
2023/04/18 08:41:47;;;;;;;5.20;4.70;;;;;;;;;;5032101;28;20205;-54
2023/04/18 08:44:13;;;;;;;4.80;4.30;;;;;;;;;;5031919;28;20201;-54
2023/04/18 08:46:39;;;;;;;4.93;4.30;;;;;;;;;;5032191;28;20217;-54
2023/04/18 08:49:07;;;;;;;5.27;4.13;;;;;;;;;;5031849;28;20686;-54
2023/04/18 08:51:33;;;;;;;5.10;4.00;;;;;;;;;;5031824;28;20211;-54
2023/04/18 08:54:03;;;;;;;5.70;4.80;;;;;;;;;;5031966;28;20343;-53
2023/04/18 08:56:29;;;;;;;4.20;3.80;;;;;;;;;;5031685;28;20303;-53
2023/04/18 08:58:59;;;;;;;4.30;3.90;;;;;;;;;;5031523;28;20782;-54
2023/04/18 09:01:40;;;;;;;4.77;4.27;;;;;;;;;;5031667;28;20212;-54
2023/04/18 09:04:08;;;;;;;4.87;4.37;;;;;;;;;;5030538;28;20575;-55
2023/04/18 09:06:34;;;;;;;7.03;4.23;;;;;;;;;;5031752;28;20201;-52
2023/04/18 09:09:03;;;;;;;5.50;3.93;;;;;;;;;;5031535;28;20251;-51
2023/04/18 09:11:30;;;;;;;4.07;3.63;;;;;;;;;;5031473;28;20279;-50
2023/04/18 09:13:57;;;;;;;4.93;4.43;;;;;;;;;;5031677;28;20201;-51
2023/04/18 09:16:24;;;;;;;6.17;4.30;;;;;;;;;;5031196;28;20201;-51
2023/04/18 09:19:05;;;;;;;4.80;4.40;;;;;;;;;;5031265;28;20207;-52
2023/04/18 09:21:34;;;;;;;4.73;4.23;;;;;;;;;;5031000;28;20287;-53
2023/04/18 09:24:16;;;;;;;5.30;4.63;;;;;;;;;;5031255;28;20205;-52
2023/04/18 09:26:42;;;;;;;5.00;4.30;;;;;;;;;;5031625;28;20192;-53
2023/04/18 09:29:08;;;;;;;4.97;4.47;;;;;;;;;;5031352;28;20228;-53
2023/04/18 09:31:34;;;;;;;5.17;4.23;;;;;;;;;;5024883;28;20406;-53
2023/04/18 09:34:01;;;;;;;4.60;4.20;;;;;;;;;;5030235;28;20209;-53
2023/04/18 09:36:28;;;;;;;4.13;3.80;;;;;;;;;;5031024;28;20211;-53
2023/04/18 09:38:55;;;;;;;4.07;3.50;;;;;;;;;;5031150;28;20194;-52
2023/04/18 09:41:24;;;;;;;3.87;3.57;;;;;;;;;;5030848;28;20213;-55
2023/04/18 09:43:51;;;;;;;3.70;3.40;;;;;;;;;;5030420;28;20213;-52
2023/04/18 09:46:17;;;;;;;4.50;3.73;;;;;;;;;;5030617;28;20292;-50
2023/04/18 09:48:43;;;;;;;3.70;3.40;;;;;;;;;;5031176;28;20291;-51
2023/04/18 09:51:10;;;;;;;3.87;3.57;;;;;;;;;;5031086;28;20239;-52
2023/04/18 09:53:38;;;;;;;4.00;3.47;;;;;;;;;;5030714;28;20233;-53
2023/04/18 09:56:09;;;;;;;3.83;3.53;;;;;;;;;;5030719;28;20211;-53
2023/04/18 09:58:40;;;;;;;3.87;3.40;;;;;;;;;;5030573;28;20677;-53
2023/04/18 10:01:06;;;;;;;4.10;3.40;;;;;;;;;;5031380;28;20212;-53
2023/04/18 10:03:33;;;;;;;4.10;3.50;;;;;;;;;;5030796;28;20219;-52
2023/04/18 10:05:59;;;;;;;3.97;3.60;;;;;;;;;;5030812;28;20275;-53
2023/04/18 10:08:25;;;;;;;4.97;3.10;;;;;;;;;;5030433;28;20713;-53
2023/04/18 10:10:54;;;;;;;5.37;3.90;;;;;;;;;;5030855;28;20662;-52
2023/04/18 10:13:22;;;;;;;3.70;3.20;;;;;;;;;;5025893;28;20674;-52
2023/04/18 10:15:51;;;;;;;3.50;3.10;;;;;;;;;;5023086;28;20199;-54
2023/04/18 10:18:21;;;;;;;3.50;3.20;;;;;;;;;;5028587;28;20862;-54
2023/04/18 10:20:47;;;;;;;4.00;3.57;;;;;;;;;;5028950;28;20231;-53
2023/04/18 10:23:33;;;;;;;3.60;3.30;;;;;;;;;;5030806;28;20254;-52
2023/04/18 10:26:00;;;;;;;4.97;3.37;;;;;;;;;;5030800;28;20203;-52
2023/04/18 10:28:47;;;;;;;3.40;3.10;;;;;;;;;;5030892;28;20220;-51
2023/04/18 10:31:15;;;;;;;3.40;3.10;;;;;;;;;;5030985;28;20197;-52
2023/04/18 10:33:45;;;;;;;3.50;2.73;;;;;;;;;;5028983;28;20206;-52
2023/04/18 10:36:15;;;;;;;3.53;3.23;;;;;;;;;;5030850;28;20199;-54
2023/04/18 10:38:45;;;;;;;3.03;2.80;;;;;;;;;;5030393;28;20208;-53
2023/04/18 10:41:19;;;;;;;2.93;2.70;;;;;;;;;;5030693;28;20260;-52
2023/04/18 10:44:04;;;;;;;4.23;3.20;;;;;;;;;;5030466;28;20192;-52
2023/04/18 10:46:32;;;;;;;4.23;3.17;;;;;;;;;;5030187;28;20202;-53
2023/04/18 10:49:12;;;;;;;4.53;3.53;;;;;;;;;;5030125;28;20300;-52
2023/04/18 10:51:38;;;;;;;4.10;3.30;;;;;;;;;;5030507;28;20198;-52
2023/04/18 10:54:06;;;;;;;5.90;3.63;;;;;;;;;;5030013;28;20297;-53
2023/04/18 10:56:32;;;;;;;4.03;3.67;;;;;;;;;;5031938;28;20230;-52
2023/04/18 10:59:00;;;;;;;4.33;3.43;;;;;;;;;;5033502;28;20249;-52
2023/04/18 11:01:27;;;;;;;5.27;3.60;;;;;;;;;;5033687;28;20211;-52
2023/04/18 11:03:55;;;;;;;6.23;3.90;;;;;;;;;;5033652;28;20191;-52
2023/04/18 11:06:21;;;;;;;3.77;3.47;;;;;;;;;;5033514;28;20257;-52
2023/04/18 11:08:48;;;;;;;3.60;3.30;;;;;;;;;;5033467;28;20195;-50
2023/04/18 11:11:14;;;;;;;4.03;3.47;;;;;;;;;;5033567;28;20626;-51
2023/04/18 11:13:53;;;;;;;3.23;2.93;;;;;;;;;;5033702;28;20324;-52
2023/04/18 11:16:25;;;;;;;4.47;3.27;;;;;;;;;;5033589;28;20248;-53
2023/04/18 11:18:51;;;;;;;3.90;3.43;;;;;;;;;;5033627;28;20202;-52
2023/04/18 11:21:19;;;;;;;4.43;3.50;;;;;;;;;;5032061;28;20227;-52
2023/04/18 11:23:46;;;;;;;3.60;3.30;;;;;;;;;;5033401;28;20219;-53
2023/04/18 11:26:16;;;;;;;4.93;3.67;;;;;;;;;;5033516;28;20249;-52
2023/04/18 11:28:42;;;;;;;3.53;3.17;;;;;;;;;;5033774;28;20195;-53
2023/04/18 11:31:08;;;;;;;4.93;3.87;;;;;;;;;;5033466;28;20196;-52
2023/04/18 11:33:34;;;;;;;5.00;3.67;;;;;;;;;;5033354;28;20263;-52
2023/04/18 11:36:00;;;;;;;3.90;3.50;;;;;;;;;;5033173;28;20202;-52
2023/04/18 11:38:33;;;;;;;4.33;3.40;;;;;;;;;;5033315;28;20195;-50
2023/04/18 11:41:01;;;;;;;3.53;3.23;;;;;;;;;;5033171;28;20230;-51
2023/04/18 11:43:27;;;;;;;3.80;3.40;;;;;;;;;;5033113;28;20660;-52
2023/04/18 11:45:54;;;;;;;4.73;3.40;;;;;;;;;;5033328;28;20237;-52
2023/04/18 11:48:20;;;;;;;3.63;3.10;;;;;;;;;;5032791;28;20647;-52
2023/04/18 11:50:46;;;;;;;4.23;3.33;;;;;;;;;;5033141;28;20194;-52
2023/04/18 11:53:12;;;;;;;3.57;3.07;;;;;;;;;;5031932;28;20247;-53
2023/04/18 11:55:39;;;;;;;3.30;3.00;;;;;;;;;;5032783;28;20225;-53
2023/04/18 11:58:05;;;;;;;2.90;2.60;;;;;;;;;;5032835;28;20238;-52
2023/04/18 12:00:32;;;;;;;2.83;2.53;;;;;;;;;;5032754;28;20534;-53
2023/04/18 12:03:00;;;;;;;3.00;2.80;;;;;;;;;;5032795;28;20202;-51
2023/04/18 12:05:27;;;;;;;4.73;3.03;;;;;;;;;;5032766;28;20611;-52
2023/04/18 12:07:54;;;;;;;3.50;2.90;;;;;;;;;;5032371;28;20210;-52
2023/04/18 12:10:24;;;;;;;3.73;3.00;;;;;;;;;;5032693;28;20243;-53
2023/04/18 12:12:52;;;;;;;2.87;2.53;;;;;;;;;;5032856;28;20223;-52
2023/04/18 12:15:19;;;;;;;3.73;2.83;;;;;;;;;;5032828;28;20210;-53
2023/04/18 12:17:47;;;;;;;3.60;3.10;;;;;;;;;;5032713;28;20278;-52
2023/04/18 12:20:14;;;;;;;3.17;2.67;;;;;;;;;;5032798;28;20315;-52
2023/04/18 12:22:42;;;;;;;4.40;3.03;;;;;;;;;;5032780;28;20198;-52
2023/04/18 12:25:21;;;;;;;4.80;3.47;;;;;;;;;;5032857;28;20199;-52
2023/04/18 12:27:52;;;;;;;3.80;2.90;;;;;;;;;;5032575;28;20226;-52
2023/04/18 12:30:20;;;;;;;3.80;3.50;;;;;;;;;;5032697;28;20202;-52
2023/04/18 12:32:46;;;;;;;3.53;2.80;;;;;;;;;;5032376;28;20211;-51
2023/04/18 12:35:13;;;;;;;5.77;3.77;;;;;;;;;;5032686;28;20238;-50
2023/04/18 12:37:39;;;;;;;3.87;3.10;;;;;;;;;;5032564;28;20252;-53
2023/04/18 12:40:06;;;;;;;4.77;3.30;;;;;;;;;;5032275;28;20233;-53
2023/04/18 12:42:32;;;;;;;4.53;3.40;;;;;;;;;;5032337;28;20195;-51
2023/04/18 12:45:02;;;;;;;4.20;3.20;;;;;;;;;;5032403;28;20210;-51
2023/04/18 12:47:28;;;;;;;3.70;3.17;;;;;;;;;;5032014;28;20820;-50
2023/04/18 12:49:54;;;;;;;3.30;2.90;;;;;;;;;;5032480;28;20200;-52
2023/04/18 12:52:20;;;;;;;4.53;3.60;;;;;;;;;;5032001;28;20203;-51
2023/04/18 12:54:46;;;;;;;4.10;3.50;;;;;;;;;;5031960;28;20250;-50
2023/04/18 12:57:12;;;;;;;4.37;3.90;;;;;;;;;;5032091;28;20243;-53
2023/04/18 12:59:38;;;;;;;4.87;3.77;;;;;;;;;;5031659;28;20243;-52
2023/04/18 13:02:06;;;;;;;4.60;3.80;;;;;;;;;;5031669;28;20199;-52
2023/04/18 13:04:32;;;;;;;4.73;3.33;;;;;;;;;;5031546;28;20204;-52
2023/04/18 13:06:58;;;;;;;4.33;3.30;;;;;;;;;;5031687;28;20214;-52
2023/04/18 13:09:25;;;;;;;3.63;3.17;;;;;;;;;;5031468;28;20219;-52
2023/04/18 13:11:51;;;;;;;3.63;3.33;;;;;;;;;;5031275;28;20207;-52
2023/04/18 13:14:17;;;;;;;3.57;3.27;;;;;;;;;;5030136;28;20207;-53
2023/04/18 13:16:43;;;;;;;5.83;3.30;;;;;;;;;;5031343;28;20203;-53
2023/04/18 13:19:11;;;;;;;3.00;2.80;;;;;;;;;;5030370;28;20750;-50
2023/04/18 13:21:36;;;;;;;4.47;3.17;;;;;;;;;;5031375;28;20291;-53
2023/04/18 13:24:03;;;;;;;4.13;3.43;;;;;;;;;;5031292;28;20291;-52
2023/04/18 13:26:29;;;;;;;3.50;3.20;;;;;;;;;;5031187;28;20729;-52
2023/04/18 13:28:55;;;;;;;5.10;3.83;;;;;;;;;;5031361;28;20231;-52
2023/04/18 13:31:21;;;;;;;3.30;3.00;;;;;;;;;;5031098;28;20231;-52
2023/04/18 13:33:47;;;;;;;3.13;2.80;;;;;;;;;;5030979;28;20199;-52
2023/04/18 13:36:15;;;;;;;3.67;3.20;;;;;;;;;;5031055;28;20204;-53
2023/04/18 13:38:41;;;;;;;3.43;3.13;;;;;;;;;;5031144;28;20206;-53
2023/04/18 13:41:07;;;;;;;3.60;3.30;;;;;;;;;;5031196;28;20223;-50
2023/04/18 13:43:33;;;;;;;3.37;3.07;;;;;;;;;;5031127;28;20294;-50
2023/04/18 13:45:59;;;;;;;2.97;2.67;;;;;;;;;;5031268;28;20211;-51
2023/04/18 13:48:26;;;;;;;2.80;2.60;;;;;;;;;;5031237;28;20665;-51
2023/04/18 13:50:52;;;;;;;3.63;3.07;;;;;;;;;;5030869;28;20273;-52
2023/04/18 13:53:19;;;;;;;3.10;2.80;;;;;;;;;;5030964;28;20204;-50
2023/04/18 13:55:45;;;;;;;3.90;3.47;;;;;;;;;;5030863;28;20229;-53
2023/04/18 13:58:11;;;;;;;3.40;3.10;;;;;;;;;;5031023;28;20232;-51
2023/04/18 14:00:37;;;;;;;3.40;3.10;;;;;;;;;;5029036;28;20662;-53
2023/04/18 14:03:03;;;;;;;2.90;2.70;;;;;;;;;;5030804;28;20247;-53
2023/04/18 14:05:30;;;;;;;3.17;2.87;;;;;;;;;;5030816;28;20225;-53
2023/04/18 14:08:01;;;;;;;3.57;2.90;;;;;;;;;;5030908;28;20644;-53
2023/04/18 14:10:28;;;;;;;5.40;3.00;;;;;;;;;;5031050;28;20198;-53
2023/04/18 14:12:54;;;;;;;3.53;3.23;;;;;;;;;;5030993;28;20230;-53
2023/04/18 14:15:20;;;;;;;3.50;3.10;;;;;;;;;;5030824;28;20627;-53
2023/04/18 14:17:46;;;;;;;3.27;2.97;;;;;;;;;;5030730;28;20205;-53
2023/04/18 14:20:14;;;;;;;3.00;2.70;;;;;;;;;;5030870;28;20719;-54
2023/04/18 14:22:40;;;;;;;3.30;2.70;;;;;;;;;;5030805;28;20691;-53
2023/04/18 14:25:09;;;;;;;3.40;3.10;;;;;;;;;;5030696;28;20230;-54
2023/04/18 14:27:37;;;;;;;3.23;2.93;;;;;;;;;;5030642;28;20198;-53
2023/04/18 14:30:05;;;;;;;2.93;2.67;;;;;;;;;;5032124;28;20221;-53
2023/04/18 14:32:31;;;;;;;4.87;2.90;;;;;;;;;;5034485;28;20206;-53
2023/04/18 14:34:58;;;;;;;3.93;3.20;;;;;;;;;;5034574;28;20207;-53
2023/04/18 14:37:24;;;;;;;3.37;2.97;;;;;;;;;;5034629;28;20204;-53
2023/04/18 14:39:50;;;;;;;2.70;2.50;;;;;;;;;;5034164;28;20225;-55
2023/04/18 14:42:16;;;;;;;3.07;2.80;;;;;;;;;;5034378;28;20200;-53